createdAt,value
2024-03-13T00:00:31.101Z,1012.87
2024-03-13T00:01:31.096Z,1012.90
2024-03-13T00:02:30.924Z,1012.95
2024-03-13T00:03:31.143Z,1012.94
2024-03-13T00:04:30.864Z,1012.95
2024-03-13T00:05:30.985Z,1012.98
2024-03-13T00:06:30.753Z,1012.97
2024-03-13T00:07:30.750Z,1013.02
2024-03-13T00:08:30.994Z,1013.01
2024-03-13T00:09:30.651Z,1013.03
2024-03-13T00:10:30.710Z,1013.04
2024-03-13T00:11:30.637Z,1013.04
2024-03-13T00:12:30.580Z,1012.99
2024-03-13T00:13:30.688Z,1013.01
2024-03-13T00:14:30.486Z,1013.05
2024-03-13T00:15:30.450Z,1013.03
2024-03-13T00:16:30.540Z,1013.04
2024-03-13T00:17:30.417Z,1013.05
2024-03-13T00:18:30.367Z,1013.04
2024-03-13T00:19:30.372Z,1013.01
2024-03-13T00:20:30.277Z,1013.04
2024-03-13T00:21:30.260Z,1013.06
2024-03-13T00:22:30.273Z,1013.06
2024-03-13T00:23:30.454Z,1013.04
2024-03-13T00:24:30.142Z,1013.06
2024-03-13T00:25:30.158Z,1013.06
2024-03-13T00:26:30.622Z,1013.04
2024-03-13T00:27:30.051Z,1013.02
2024-03-13T00:28:30.330Z,1013.01
2024-03-13T00:29:29.983Z,1013.01
2024-03-13T00:30:29.956Z,1013.04
2024-03-13T00:31:29.948Z,1013.00
2024-03-13T00:32:29.908Z,1013.02
2024-03-13T00:33:30.114Z,1013.01
2024-03-13T00:34:29.867Z,1013.03
2024-03-13T00:35:29.787Z,1013.06
2024-03-13T00:36:29.745Z,1013.05
2024-03-13T00:37:29.741Z,1013.02
2024-03-13T00:38:29.947Z,1013.03
2024-03-13T00:39:29.916Z,1013.01
2024-03-13T00:40:29.611Z,1013.02
2024-03-13T00:41:29.569Z,1013.02
2024-03-13T00:42:29.535Z,1012.99
2024-03-13T00:43:29.536Z,1013.01
2024-03-13T00:44:29.736Z,1013.03
2024-03-13T00:45:29.430Z,1013.03
2024-03-13T00:46:29.536Z,1013.03
2024-03-13T00:47:29.384Z,1013.00
2024-03-13T00:48:29.609Z,1012.98
2024-03-13T00:49:29.308Z,1012.99
2024-03-13T00:50:29.344Z,1012.96
2024-03-13T00:51:29.246Z,1012.97
2024-03-13T00:52:29.264Z,1012.99
2024-03-13T00:53:29.444Z,1012.99
2024-03-13T00:54:29.187Z,1012.97
2024-03-13T00:55:29.181Z,1012.94
2024-03-13T00:56:29.065Z,1012.96
2024-03-13T00:57:29.036Z,1012.94
2024-03-13T00:58:29.340Z,1012.92
2024-03-13T00:59:28.970Z,1012.93
2024-03-13T01:00:28.938Z,1012.94
2024-03-13T01:01:29.046Z,1012.91
2024-03-13T01:02:28.856Z,1012.88
2024-03-13T01:03:29.101Z,1012.87
2024-03-13T01:04:28.860Z,1012.83
2024-03-13T01:05:28.759Z,1012.84
2024-03-13T01:06:28.723Z,1012.86
2024-03-13T01:07:28.731Z,1012.83
2024-03-13T01:08:28.930Z,1012.83
2024-03-13T01:09:28.629Z,1012.82
2024-03-13T01:10:28.707Z,1012.88
2024-03-13T01:11:28.594Z,1012.83
2024-03-13T01:12:28.537Z,1012.84
2024-03-13T01:13:28.788Z,1012.85
2024-03-13T01:14:28.448Z,1012.86
2024-03-13T01:15:28.429Z,1012.88
2024-03-13T01:16:28.405Z,1012.88
2024-03-13T01:17:28.361Z,1012.86
2024-03-13T01:18:28.593Z,1012.81
2024-03-13T01:19:28.375Z,1012.83
2024-03-13T01:20:28.265Z,1012.87
2024-03-13T01:21:28.227Z,1012.87
2024-03-13T01:22:28.232Z,1012.87
2024-03-13T01:23:28.435Z,1012.90
2024-03-13T01:24:28.114Z,1012.90
2024-03-13T01:25:28.182Z,1012.87
2024-03-13T01:26:28.052Z,1012.89
2024-03-13T01:27:28.016Z,1012.90
2024-03-13T01:28:28.283Z,1012.91
2024-03-13T01:29:27.980Z,1012.90
2024-03-13T01:30:27.948Z,1012.91
2024-03-13T01:31:27.993Z,1012.88
2024-03-13T01:32:27.879Z,1012.88
2024-03-13T01:33:28.107Z,1012.87
2024-03-13T01:34:27.920Z,1012.86
2024-03-13T01:35:27.770Z,1012.88
2024-03-13T01:36:27.711Z,1012.85
2024-03-13T01:37:27.788Z,1012.87
2024-03-13T01:38:27.940Z,1012.85
2024-03-13T01:39:27.640Z,1012.87
2024-03-13T01:40:27.598Z,1012.85
2024-03-13T01:41:27.561Z,1012.90
2024-03-13T01:42:27.502Z,1012.88
2024-03-13T01:43:27.540Z,1012.91
2024-03-13T01:44:27.472Z,1012.90
2024-03-13T01:45:27.407Z,1012.91
2024-03-13T01:46:27.474Z,1012.90
2024-03-13T01:47:27.361Z,1012.90
2024-03-13T01:48:27.300Z,1012.91
2024-03-13T01:49:27.677Z,1012.88
2024-03-13T01:50:27.250Z,1012.82
2024-03-13T01:51:27.214Z,1012.81
2024-03-13T01:52:27.273Z,1012.78
2024-03-13T01:53:27.444Z,1012.82
2024-03-13T01:54:27.143Z,1012.78
2024-03-13T01:55:27.324Z,1012.82
2024-03-13T01:56:27.048Z,1012.79
2024-03-13T01:57:26.996Z,1012.80
2024-03-13T01:58:27.270Z,1012.80
2024-03-13T01:59:26.933Z,1012.80
2024-03-13T02:00:26.892Z,1012.80
2024-03-13T02:01:26.976Z,1012.84
2024-03-13T02:02:26.909Z,1012.83
2024-03-13T02:03:27.080Z,1012.85
2024-03-13T02:04:26.822Z,1012.87
2024-03-13T02:05:26.726Z,1012.92
2024-03-13T02:06:26.719Z,1012.87
2024-03-13T02:07:26.683Z,1012.86
2024-03-13T02:08:26.931Z,1012.87
2024-03-13T02:09:26.591Z,1012.85
2024-03-13T02:10:26.685Z,1012.88
2024-03-13T02:11:26.608Z,1012.86
2024-03-13T02:12:26.486Z,1012.85
2024-03-13T02:13:26.793Z,1012.83
2024-03-13T02:14:26.435Z,1012.86
2024-03-13T02:15:26.384Z,1012.83
2024-03-13T02:16:26.464Z,1012.82
2024-03-13T02:17:26.322Z,1012.84
2024-03-13T02:18:26.307Z,1012.84
2024-03-13T02:19:26.318Z,1012.82
2024-03-13T02:20:26.226Z,1012.83
2024-03-13T02:21:26.188Z,1012.82
2024-03-13T02:22:26.204Z,1012.85
2024-03-13T02:23:26.393Z,1012.83
2024-03-13T02:24:26.076Z,1012.83
2024-03-13T02:25:26.062Z,1012.83
2024-03-13T02:26:26.004Z,1012.81
2024-03-13T02:27:25.982Z,1012.82
2024-03-13T02:28:26.218Z,1012.82
2024-03-13T02:29:25.903Z,1012.86
2024-03-13T02:30:25.871Z,1012.81
2024-03-13T02:31:26.733Z,1012.85
2024-03-13T02:32:25.794Z,1012.86
2024-03-13T02:33:26.038Z,1012.87
2024-03-13T02:34:25.768Z,1012.84
2024-03-13T02:35:25.713Z,1012.88
2024-03-13T02:36:25.664Z,1012.81
2024-03-13T02:37:25.792Z,1012.80
2024-03-13T02:38:25.870Z,1012.80
2024-03-13T02:39:25.576Z,1012.82
2024-03-13T02:40:25.626Z,1012.84
2024-03-13T02:41:25.489Z,1012.84
2024-03-13T02:42:25.457Z,1012.78
2024-03-13T02:43:26.029Z,1012.81
2024-03-13T02:44:25.399Z,1012.83
2024-03-13T02:45:25.353Z,1012.81
2024-03-13T02:46:25.466Z,1012.82
2024-03-13T02:47:25.305Z,1012.82
2024-03-13T02:48:25.247Z,1012.86
2024-03-13T02:49:25.565Z,1012.79
2024-03-13T02:50:25.180Z,1012.82
2024-03-13T02:51:25.176Z,1012.82
2024-03-13T02:52:25.207Z,1012.80
2024-03-13T02:53:25.085Z,1012.83
2024-03-13T02:54:25.326Z,1012.85
2024-03-13T02:55:25.101Z,1012.86
2024-03-13T02:56:24.981Z,1012.84
2024-03-13T02:57:24.954Z,1012.86
2024-03-13T02:58:25.016Z,1012.83
2024-03-13T02:59:25.139Z,1012.85
2024-03-13T03:00:24.836Z,1012.82
2024-03-13T03:01:24.912Z,1012.83
2024-03-13T03:02:24.808Z,1012.83
2024-03-13T03:03:24.723Z,1012.81
2024-03-13T03:04:25.004Z,1012.82
2024-03-13T03:05:24.657Z,1012.80
2024-03-13T03:06:24.634Z,1012.81
2024-03-13T03:07:24.676Z,1012.78
2024-03-13T03:08:24.569Z,1012.85
2024-03-13T03:09:24.797Z,1012.86
2024-03-13T03:10:24.543Z,1012.81
2024-03-13T03:11:24.459Z,1012.87
2024-03-13T03:12:24.460Z,1012.86
2024-03-13T03:13:24.516Z,1012.88
2024-03-13T03:14:24.527Z,1012.83
2024-03-13T03:15:24.311Z,1012.84
2024-03-13T03:16:24.345Z,1012.82
2024-03-13T03:17:24.250Z,1012.82
2024-03-13T03:18:24.205Z,1012.82
2024-03-13T03:19:24.256Z,1012.83
2024-03-13T03:20:24.312Z,1012.80
2024-03-13T03:21:24.280Z,1012.84
2024-03-13T03:22:24.103Z,1012.84
2024-03-13T03:23:24.068Z,1012.85
2024-03-13T03:24:23.997Z,1012.80
2024-03-13T03:25:23.984Z,1012.85
2024-03-13T03:26:24.097Z,1012.78
2024-03-13T03:27:23.898Z,1012.86
2024-03-13T03:28:23.948Z,1012.85
2024-03-13T03:29:23.823Z,1012.84
2024-03-13T03:30:23.788Z,1012.88
2024-03-13T03:31:24.079Z,1012.87
2024-03-13T03:32:23.726Z,1012.88
2024-03-13T03:33:23.683Z,1012.86
2024-03-13T03:34:23.676Z,1012.85
2024-03-13T03:35:23.614Z,1012.82
2024-03-13T03:36:23.574Z,1012.79
2024-03-13T03:37:23.803Z,1012.82
2024-03-13T03:38:23.503Z,1012.82
2024-03-13T03:39:23.471Z,1012.78
2024-03-13T03:40:23.466Z,1012.79
2024-03-13T03:41:23.425Z,1012.77
2024-03-13T03:42:23.361Z,1012.82
2024-03-13T03:43:23.543Z,1012.79
2024-03-13T03:44:23.286Z,1012.80
2024-03-13T03:45:23.276Z,1012.82
2024-03-13T03:46:23.253Z,1012.83
2024-03-13T03:47:23.188Z,1012.82
2024-03-13T03:48:23.224Z,1012.83
2024-03-13T03:49:23.317Z,1012.84
2024-03-13T03:50:23.078Z,1012.86
2024-03-13T03:51:23.050Z,1012.83
2024-03-13T03:52:23.077Z,1012.81
2024-03-13T03:53:22.984Z,1012.85
2024-03-13T03:54:22.932Z,1012.83
2024-03-13T03:55:23.155Z,1012.85
2024-03-13T03:56:22.859Z,1012.82
2024-03-13T03:57:22.831Z,1012.85
2024-03-13T03:58:22.857Z,1012.85
2024-03-13T03:59:22.766Z,1012.87
2024-03-13T04:00:22.727Z,1012.83
2024-03-13T04:01:22.962Z,1012.85
2024-03-13T04:02:22.669Z,1012.84
2024-03-13T04:03:22.621Z,1012.82
2024-03-13T04:04:22.632Z,1012.81
2024-03-13T04:05:22.540Z,1012.82
2024-03-13T04:06:22.700Z,1012.84
2024-03-13T04:07:22.620Z,1012.83
2024-03-13T04:08:22.445Z,1012.85
2024-03-13T04:09:22.398Z,1012.83
2024-03-13T04:10:22.381Z,1012.83
2024-03-13T04:11:22.382Z,1012.81
2024-03-13T04:12:22.464Z,1012.83
2024-03-13T04:13:22.282Z,1012.80
2024-03-13T04:14:22.217Z,1012.83
2024-03-13T04:15:22.178Z,1012.83
2024-03-13T04:16:22.169Z,1012.84
2024-03-13T04:17:22.105Z,1012.88
2024-03-13T04:18:22.280Z,1012.85
2024-03-13T04:19:22.103Z,1012.89
2024-03-13T04:20:22.477Z,1012.87
2024-03-13T04:21:21.959Z,1012.85
2024-03-13T04:22:22.066Z,1012.86
2024-03-13T04:23:21.890Z,1012.88
2024-03-13T04:24:22.058Z,1012.87
2024-03-13T04:25:21.852Z,1012.85
2024-03-13T04:26:21.789Z,1012.86
2024-03-13T04:27:21.759Z,1012.86
2024-03-13T04:28:21.739Z,1012.86
2024-03-13T04:29:21.829Z,1012.90
2024-03-13T04:30:21.848Z,1012.87
2024-03-13T04:31:21.671Z,1012.86
2024-03-13T04:32:21.604Z,1012.84
2024-03-13T04:33:21.543Z,1012.89
2024-03-13T04:34:21.522Z,1012.86
2024-03-13T04:35:21.472Z,1012.86
2024-03-13T04:36:21.833Z,1012.90
2024-03-13T04:37:21.448Z,1012.86
2024-03-13T04:38:21.361Z,1012.87
2024-03-13T04:39:21.310Z,1012.87
2024-03-13T04:40:21.559Z,1012.89
2024-03-13T04:41:21.238Z,1012.85
2024-03-13T04:42:21.382Z,1012.87
2024-03-13T04:43:21.217Z,1012.84
2024-03-13T04:44:21.134Z,1012.90
2024-03-13T04:45:21.144Z,1012.88
2024-03-13T04:46:21.117Z,1012.88
2024-03-13T04:47:21.018Z,1012.85
2024-03-13T04:48:21.255Z,1012.83
2024-03-13T04:49:20.992Z,1012.85
2024-03-13T04:50:20.932Z,1012.85
2024-03-13T04:51:20.868Z,1012.88
2024-03-13T04:52:20.899Z,1012.84
2024-03-13T04:53:20.804Z,1012.85
2024-03-13T04:54:20.950Z,1012.85
2024-03-13T04:55:20.787Z,1012.84
2024-03-13T04:56:20.695Z,1012.84
2024-03-13T04:57:20.662Z,1012.81
2024-03-13T04:58:20.643Z,1012.85
2024-03-13T04:59:20.588Z,1012.87
2024-03-13T05:00:21.339Z,1012.88
2024-03-13T05:01:20.914Z,1012.88
2024-03-13T05:02:20.483Z,1012.89
2024-03-13T05:03:20.436Z,1012.88
2024-03-13T05:04:20.442Z,1012.93
2024-03-13T05:05:20.370Z,1012.92
2024-03-13T05:06:20.522Z,1012.95
2024-03-13T05:07:20.320Z,1012.93
2024-03-13T05:08:20.257Z,1012.91
2024-03-13T05:09:20.227Z,1012.90
2024-03-13T05:10:20.228Z,1012.97
2024-03-13T05:11:20.235Z,1012.92
2024-03-13T05:12:20.304Z,1012.91
2024-03-13T05:13:20.131Z,1012.95
2024-03-13T05:14:20.040Z,1012.92
2024-03-13T05:15:19.995Z,1012.94
2024-03-13T05:16:20.053Z,1012.92
2024-03-13T05:17:19.924Z,1012.93
2024-03-13T05:18:20.079Z,1012.94
2024-03-13T05:19:20.959Z,1012.97
2024-03-13T05:20:19.818Z,1013.00
2024-03-13T05:21:19.917Z,1013.00
2024-03-13T05:22:20.658Z,1013.01
2024-03-13T05:23:19.702Z,1012.99
2024-03-13T05:24:19.867Z,1013.01
2024-03-13T05:25:19.690Z,1013.04
2024-03-13T05:26:19.598Z,1013.03
2024-03-13T05:27:19.557Z,1013.01
2024-03-13T05:28:19.576Z,1012.98
2024-03-13T05:29:19.485Z,1012.99
2024-03-13T05:30:19.637Z,1013.01
2024-03-13T05:31:19.513Z,1013.04
2024-03-13T05:32:19.375Z,1013.06
2024-03-13T05:33:19.337Z,1013.04
2024-03-13T05:34:19.324Z,1013.06
2024-03-13T05:35:19.280Z,1013.03
2024-03-13T05:36:19.270Z,1013.05
2024-03-13T05:37:19.242Z,1013.06
2024-03-13T05:38:19.160Z,1013.11
2024-03-13T05:39:19.137Z,1013.12
2024-03-13T05:40:19.397Z,1013.18
2024-03-13T05:41:19.039Z,1013.16
2024-03-13T05:42:19.294Z,1013.12
2024-03-13T05:43:18.988Z,1013.12
2024-03-13T05:44:18.932Z,1013.11
2024-03-13T05:45:18.896Z,1013.15
2024-03-13T05:46:18.917Z,1013.15
2024-03-13T05:47:18.833Z,1013.15
2024-03-13T05:48:18.991Z,1013.09
2024-03-13T05:49:19.697Z,1013.10
2024-03-13T05:50:18.872Z,1013.14
2024-03-13T05:51:18.674Z,1013.11
2024-03-13T05:52:18.672Z,1013.10
2024-03-13T05:53:18.633Z,1013.08
2024-03-13T05:54:18.758Z,1013.09
2024-03-13T05:55:21.642Z,1013.08
2024-03-13T05:56:18.497Z,1013.09
2024-03-13T05:57:18.454Z,1013.08
2024-03-13T05:58:18.426Z,1013.11
2024-03-13T05:59:18.390Z,1013.07
2024-03-13T06:00:18.527Z,1013.08
2024-03-13T06:01:18.416Z,1013.13
2024-03-13T06:02:18.345Z,1013.10
2024-03-13T06:03:18.238Z,1013.13
2024-03-13T06:04:18.260Z,1013.13
2024-03-13T06:05:18.233Z,1013.12
2024-03-13T06:06:18.378Z,1013.14
2024-03-13T06:07:18.121Z,1013.15
2024-03-13T06:08:18.057Z,1013.15
2024-03-13T06:09:18.013Z,1013.15
2024-03-13T06:10:18.042Z,1013.20
2024-03-13T06:11:17.955Z,1013.16
2024-03-13T06:12:17.928Z,1013.16
2024-03-13T06:13:17.945Z,1013.18
2024-03-13T06:14:17.832Z,1013.22
2024-03-13T06:15:17.796Z,1013.18
2024-03-13T06:16:17.854Z,1013.21
2024-03-13T06:17:17.717Z,1013.23
2024-03-13T06:18:17.900Z,1013.24
2024-03-13T06:19:17.691Z,1013.30
2024-03-13T06:20:17.623Z,1013.29
2024-03-13T06:21:17.576Z,1013.33
2024-03-13T06:22:17.573Z,1013.31
2024-03-13T06:23:17.528Z,1013.34
2024-03-13T06:24:17.635Z,1013.31
2024-03-13T06:25:17.514Z,1013.34
2024-03-13T06:26:18.102Z,1013.35
2024-03-13T06:27:17.354Z,1013.35
2024-03-13T06:28:17.368Z,1013.37
2024-03-13T06:29:17.280Z,1013.41
2024-03-13T06:30:17.428Z,1013.39
2024-03-13T06:31:17.282Z,1013.43
2024-03-13T06:32:17.169Z,1013.41
2024-03-13T06:33:17.155Z,1013.42
2024-03-13T06:34:17.140Z,1013.42
2024-03-13T06:35:17.062Z,1013.45
2024-03-13T06:36:17.191Z,1013.44
2024-03-13T06:37:16.996Z,1013.48
2024-03-13T06:38:16.947Z,1013.49
2024-03-13T06:39:16.922Z,1013.46
2024-03-13T06:40:16.980Z,1013.46
2024-03-13T06:41:16.841Z,1013.48
2024-03-13T06:42:16.978Z,1013.46
2024-03-13T06:43:16.821Z,1013.48
2024-03-13T06:44:16.728Z,1013.48
2024-03-13T06:45:24.215Z,1013.51
2024-03-13T06:46:16.760Z,1013.51
2024-03-13T06:47:16.632Z,1013.49
2024-03-13T06:48:16.900Z,1013.48
2024-03-13T06:49:16.574Z,1013.49
2024-03-13T06:50:16.547Z,1013.48
2024-03-13T06:51:16.480Z,1013.51
2024-03-13T06:52:16.535Z,1013.52
2024-03-13T06:53:16.418Z,1013.50
2024-03-13T06:54:16.443Z,1013.47
2024-03-13T06:55:16.384Z,1013.49
2024-03-13T06:56:16.294Z,1013.54
2024-03-13T06:57:16.273Z,1013.50
2024-03-13T06:58:16.287Z,1013.49
2024-03-13T06:59:16.204Z,1013.54
2024-03-13T07:00:16.329Z,1013.52
2024-03-13T07:01:16.222Z,1013.53
2024-03-13T07:02:16.276Z,1013.57
2024-03-13T07:03:16.053Z,1013.55
2024-03-13T07:04:16.076Z,1013.59
2024-03-13T07:05:15.981Z,1013.56
2024-03-13T07:06:16.189Z,1013.58
2024-03-13T07:07:15.920Z,1013.56
2024-03-13T07:08:15.871Z,1013.57
2024-03-13T07:09:15.892Z,1013.63
2024-03-13T07:10:15.957Z,1013.58
2024-03-13T07:11:15.800Z,1013.62
2024-03-13T07:12:15.911Z,1013.63
2024-03-13T07:13:15.702Z,1013.60
2024-03-13T07:14:15.651Z,1013.61
2024-03-13T07:15:15.627Z,1013.64
2024-03-13T07:16:15.638Z,1013.64
2024-03-13T07:17:15.551Z,1013.65
2024-03-13T07:18:15.567Z,1013.60
2024-03-13T07:19:15.589Z,1013.64
2024-03-13T07:20:15.736Z,1013.63
2024-03-13T07:21:15.401Z,1013.60
2024-03-13T07:22:15.381Z,1013.64
2024-03-13T07:23:15.328Z,1013.67
2024-03-13T07:24:15.538Z,1013.67
2024-03-13T07:25:15.302Z,1013.68
2024-03-13T07:26:15.220Z,1013.65
2024-03-13T07:27:15.197Z,1013.70
2024-03-13T07:28:15.214Z,1013.69
2024-03-13T07:29:15.119Z,1013.74
2024-03-13T07:30:15.279Z,1013.73
2024-03-13T07:31:15.086Z,1013.66
2024-03-13T07:32:15.010Z,1013.68
2024-03-13T07:33:14.992Z,1013.69
2024-03-13T07:34:14.972Z,1013.69
2024-03-13T07:35:14.904Z,1013.65
2024-03-13T07:36:15.071Z,1013.63
2024-03-13T07:37:14.927Z,1013.66
2024-03-13T07:38:14.819Z,1013.64
2024-03-13T07:39:14.788Z,1013.67
2024-03-13T07:40:14.744Z,1013.65
2024-03-13T07:41:14.695Z,1013.64
2024-03-13T07:42:14.833Z,1013.63
2024-03-13T07:43:14.656Z,1013.62
2024-03-13T07:44:14.589Z,1013.62
2024-03-13T07:45:14.564Z,1013.62
2024-03-13T07:46:14.590Z,1013.61
2024-03-13T07:47:14.499Z,1013.61
2024-03-13T07:48:14.678Z,1013.64
2024-03-13T07:49:14.476Z,1013.64
2024-03-13T07:50:14.378Z,1013.67
2024-03-13T07:51:14.358Z,1013.68
2024-03-13T07:52:14.332Z,1013.70
2024-03-13T07:53:14.289Z,1013.69
2024-03-13T07:54:14.426Z,1013.68
2024-03-13T07:55:14.292Z,1013.72
2024-03-13T07:56:14.190Z,1013.69
2024-03-13T07:57:14.167Z,1013.72
2024-03-13T07:58:14.173Z,1013.74
2024-03-13T07:59:14.100Z,1013.72
2024-03-13T08:00:14.226Z,1013.70
2024-03-13T08:01:14.077Z,1013.74
2024-03-13T08:02:14.184Z,1013.75
2024-03-13T08:03:13.934Z,1013.73
2024-03-13T08:04:13.935Z,1013.77
2024-03-13T08:05:13.877Z,1013.75
2024-03-13T09:06:19.780Z,1013.82
2024-03-13T09:07:19.739Z,1013.82
2024-03-13T09:08:27.065Z,1013.83
2024-03-13T09:09:19.664Z,1013.81
2024-03-13T09:10:19.808Z,1013.79
2024-03-13T09:11:19.806Z,1013.80
2024-03-13T09:12:19.601Z,1013.82
2024-03-13T09:13:19.529Z,1013.84
2024-03-13T09:14:20.409Z,1013.82
2024-03-13T09:15:19.521Z,1013.83
2024-03-13T09:16:19.447Z,1013.92
2024-03-13T09:17:19.393Z,1013.89
2024-03-13T09:18:19.404Z,1013.87
2024-03-13T09:19:19.338Z,1013.83
2024-03-13T09:20:19.494Z,1013.84
2024-03-13T09:21:19.288Z,1013.85
2024-03-13T09:22:19.223Z,1013.83
2024-03-13T09:23:19.187Z,1013.83
2024-03-13T09:24:19.239Z,1013.77
2024-03-13T09:25:19.123Z,1013.82
2024-03-13T09:26:19.264Z,1013.79
2024-03-13T09:27:19.200Z,1013.78
2024-03-13T09:28:19.037Z,1013.78
2024-03-13T09:29:18.987Z,1013.75
2024-03-13T09:30:19.022Z,1013.71
2024-03-13T09:31:18.926Z,1013.69
2024-03-13T09:32:19.136Z,1013.70
2024-03-13T09:33:18.990Z,1013.72
2024-03-13T09:34:18.831Z,1013.70
2024-03-13T09:35:18.800Z,1013.70
2024-03-13T09:36:18.888Z,1013.71
2024-03-13T09:37:18.922Z,1013.69
2024-03-13T09:38:18.929Z,1013.66
2024-03-13T09:39:18.752Z,1013.67
2024-03-13T09:40:18.630Z,1013.70
2024-03-13T09:41:18.598Z,1013.67
2024-03-13T09:42:18.790Z,1013.67
2024-03-13T09:43:20.841Z,1013.59
2024-03-13T09:44:18.689Z,1013.61
2024-03-13T09:45:18.476Z,1013.63
2024-03-13T09:46:18.436Z,1013.61
2024-03-13T09:47:18.399Z,1013.59
2024-03-13T09:48:18.431Z,1013.60
2024-03-13T09:49:18.332Z,1013.62
2024-03-13T09:50:18.490Z,1013.65
2024-03-13T09:51:18.369Z,1013.70
2024-03-13T09:52:18.240Z,1013.70
2024-03-13T09:53:18.202Z,1013.74
2024-03-13T09:54:18.247Z,1013.76
2024-03-13T09:55:18.144Z,1013.73
2024-03-13T09:56:18.295Z,1013.73
2024-03-13T09:57:18.187Z,1013.75
2024-03-13T09:58:18.050Z,1013.72
2024-03-13T09:59:18.914Z,1013.70
2024-03-13T10:00:18.021Z,1013.69
2024-03-13T10:01:17.965Z,1013.68
2024-03-13T10:02:18.033Z,1013.68
2024-03-13T10:03:17.991Z,1013.70
2024-03-13T10:04:17.965Z,1013.69
2024-03-13T10:05:17.818Z,1013.72
2024-03-13T10:06:17.822Z,1013.71
2024-03-13T10:07:17.747Z,1013.71
2024-03-13T10:08:17.924Z,1013.66
2024-03-13T10:09:17.809Z,1013.72
2024-03-13T10:10:17.657Z,1013.64
2024-03-13T10:11:17.660Z,1013.58
2024-03-13T10:12:17.646Z,1013.61
2024-03-13T10:13:18.358Z,1013.60
2024-03-13T10:14:17.732Z,1013.55
2024-03-13T10:15:17.636Z,1013.56
2024-03-13T10:16:17.468Z,1013.55
2024-03-13T10:17:17.426Z,1013.55
2024-03-13T10:18:17.512Z,1013.57
2024-03-13T10:19:17.371Z,1013.54
2024-03-13T10:20:17.545Z,1013.56
2024-03-13T10:21:17.413Z,1013.52
2024-03-13T10:22:17.296Z,1013.49
2024-03-13T10:23:17.245Z,1013.46
2024-03-13T10:24:17.264Z,1013.40
2024-03-13T10:25:17.171Z,1013.42
2024-03-13T10:26:17.333Z,1013.43
2024-03-13T10:27:17.299Z,1013.39
2024-03-13T10:28:17.084Z,1013.42
2024-03-13T10:29:17.042Z,1013.43
2024-03-13T10:30:17.048Z,1013.45
2024-03-13T10:31:16.986Z,1013.45
2024-03-13T10:32:17.133Z,1013.43
2024-03-13T10:33:17.008Z,1013.39
2024-03-13T10:34:16.921Z,1013.41
2024-03-13T10:35:16.858Z,1013.40
2024-03-13T10:36:16.906Z,1013.38
2024-03-13T10:37:16.852Z,1013.36
2024-03-13T10:38:16.933Z,1013.36
2024-03-13T10:39:16.792Z,1013.38
2024-03-13T10:40:16.719Z,1013.35
2024-03-13T10:41:16.682Z,1013.35
2024-03-13T10:42:16.669Z,1013.33
2024-03-13T10:43:16.616Z,1013.35
2024-03-13T10:44:16.758Z,1013.38
2024-03-13T10:45:16.725Z,1013.40
2024-03-13T10:46:16.531Z,1013.41
2024-03-13T10:47:17.367Z,1013.41
2024-03-13T10:48:16.513Z,1013.37
2024-03-13T10:49:16.413Z,1013.33
2024-03-13T10:50:16.559Z,1013.36
2024-03-13T10:51:16.426Z,1013.35
2024-03-13T10:52:16.324Z,1013.34
2024-03-13T10:53:16.293Z,1013.36
2024-03-13T10:54:16.285Z,1013.34
2024-03-13T10:55:16.236Z,1013.38
2024-03-13T10:56:16.398Z,1013.33
2024-03-13T10:57:16.959Z,1013.39
2024-03-13T10:58:16.131Z,1013.36
2024-03-13T10:59:16.099Z,1013.35
2024-03-13T11:00:16.124Z,1013.34
2024-03-13T11:01:16.039Z,1013.32
2024-03-13T11:02:16.186Z,1013.29
2024-03-13T11:03:16.043Z,1013.30
2024-03-13T11:04:15.950Z,1013.22
2024-03-13T11:05:15.908Z,1013.25
2024-03-13T11:06:16.184Z,1013.26
2024-03-13T11:07:15.979Z,1013.23
2024-03-13T11:08:15.823Z,1013.28
2024-03-13T11:09:15.794Z,1013.27
2024-03-13T11:10:15.752Z,1013.25
2024-03-13T11:11:20.946Z,1013.26
2024-03-13T11:12:15.760Z,1013.19
2024-03-13T11:13:15.828Z,1013.16
2024-03-13T11:14:15.631Z,1013.18
2024-03-13T11:15:15.725Z,1013.09
2024-03-13T11:16:15.580Z,1013.11
2024-03-13T11:17:15.529Z,1013.03
2024-03-13T11:18:15.623Z,1013.05
2024-03-13T11:19:15.663Z,1013.01
2024-03-13T11:20:15.439Z,1013.04
2024-03-13T11:21:15.480Z,1013.01
2024-03-13T11:22:15.376Z,1013.03
2024-03-13T11:23:15.360Z,1013.01
2024-03-13T11:24:15.346Z,1013.06
2024-03-13T11:25:15.487Z,1013.04
2024-03-13T11:26:15.296Z,1013.10
2024-03-13T11:27:15.253Z,1013.06
2024-03-13T11:28:15.186Z,1013.11
2024-03-13T11:29:15.154Z,1013.12
2024-03-13T11:30:15.362Z,1013.11
2024-03-13T11:31:15.307Z,1013.12
2024-03-13T11:32:15.160Z,1013.08
2024-03-13T11:33:15.105Z,1013.07
2024-03-13T11:34:15.002Z,1013.08
2024-03-13T11:35:14.988Z,1013.10
2024-03-13T11:36:15.496Z,1013.04
2024-03-13T11:37:15.173Z,1013.06
2024-03-13T11:38:14.866Z,1013.08
2024-03-13T11:39:14.894Z,1013.07
2024-03-13T11:40:14.815Z,1013.07
2024-03-13T11:41:14.779Z,1013.03
2024-03-13T11:42:15.109Z,1012.98
2024-03-13T11:43:14.972Z,1013.01
2024-03-13T11:44:14.680Z,1013.00
2024-03-13T11:45:14.696Z,1012.98
2024-03-13T11:46:14.628Z,1013.03
2024-03-13T11:47:14.617Z,1012.99
2024-03-13T11:48:14.778Z,1012.99
2024-03-13T11:49:14.730Z,1013.01
2024-03-13T11:50:14.491Z,1013.04
2024-03-13T11:51:14.502Z,1013.07
2024-03-13T11:52:14.967Z,1013.07
2024-03-13T11:53:14.403Z,1013.09
2024-03-13T11:54:14.624Z,1013.03
2024-03-13T11:55:14.348Z,1013.06
2024-03-13T11:56:14.520Z,1013.09
2024-03-13T11:57:14.356Z,1013.08
2024-03-13T11:58:14.247Z,1013.07
2024-03-13T11:59:14.443Z,1012.99
2024-03-13T12:00:14.236Z,1013.01
2024-03-13T12:01:17.354Z,1012.93
2024-03-13T12:02:14.121Z,1012.90
2024-03-13T12:03:14.140Z,1012.92
2024-03-13T12:04:14.059Z,1012.87
2024-03-13T12:05:14.224Z,1012.86
2024-03-13T12:06:14.028Z,1012.87
2024-03-13T12:07:13.963Z,1012.87
2024-03-13T12:08:13.949Z,1012.83
2024-03-13T12:09:13.966Z,1012.83
2024-03-13T12:10:13.938Z,1012.82
2024-03-13T12:11:14.046Z,1012.86
2024-03-13T12:12:13.916Z,1012.84
2024-03-13T12:13:13.782Z,1012.86
2024-03-13T12:14:13.756Z,1012.86
2024-03-13T12:15:13.814Z,1012.82
2024-03-13T12:16:13.696Z,1012.83
2024-03-13T12:17:13.837Z,1012.80
2024-03-13T12:18:13.703Z,1012.82
2024-03-13T12:19:13.692Z,1012.80
2024-03-13T12:20:13.588Z,1012.77
2024-03-13T12:21:13.560Z,1012.79
2024-03-13T12:22:13.515Z,1012.78
2024-03-13T12:23:13.725Z,1012.80
2024-03-13T12:24:13.509Z,1012.73
2024-03-13T12:25:13.443Z,1012.73
2024-03-13T12:26:13.429Z,1012.74
2024-03-13T12:27:13.447Z,1012.73
2024-03-13T12:28:13.326Z,1012.72
2024-03-13T12:29:13.497Z,1012.68
2024-03-13T12:30:13.341Z,1012.70
2024-03-13T12:31:13.240Z,1012.63
2024-03-13T12:32:13.205Z,1012.68
2024-03-13T12:33:13.316Z,1012.67
2024-03-13T12:34:13.145Z,1012.68
2024-03-13T12:35:13.300Z,1012.65
2024-03-13T12:36:13.147Z,1012.64
2024-03-13T12:37:13.096Z,1012.69
2024-03-13T12:38:13.048Z,1012.70
2024-03-13T12:39:13.001Z,1012.70
2024-03-13T12:40:12.969Z,1012.71
2024-03-13T12:41:13.295Z,1012.65
2024-03-13T12:42:13.012Z,1012.64
2024-03-13T12:43:12.870Z,1012.65
2024-03-13T12:44:12.884Z,1012.63
2024-03-13T12:45:12.869Z,1012.60
2024-03-13T12:46:12.780Z,1012.58
2024-03-13T12:47:12.928Z,1012.60
2024-03-13T12:48:12.775Z,1012.59
2024-03-13T12:49:14.988Z,1012.58
2024-03-13T12:50:12.660Z,1012.61
2024-03-13T12:51:12.805Z,1012.56
2024-03-13T12:52:12.603Z,1012.58
2024-03-13T12:53:12.759Z,1012.59
2024-03-13T12:54:12.621Z,1012.61
2024-03-13T12:55:12.504Z,1012.61
2024-03-13T12:56:12.543Z,1012.54
2024-03-13T12:57:12.508Z,1012.53
2024-03-13T12:58:12.418Z,1012.54
2024-03-13T12:59:12.584Z,1012.52
2024-03-13T13:00:12.400Z,1012.54
2024-03-13T13:01:12.341Z,1012.54
2024-03-13T13:02:12.309Z,1012.57
2024-03-13T13:03:12.369Z,1012.52
2024-03-13T13:04:12.235Z,1012.55
2024-03-13T13:05:12.393Z,1012.55